sensor_id;sensor_type;location;lat;lon;timestamp;pressure;altitude;pressure_sealevel;temperature;humidity
75424;BME280;64005;55.160;36.002;2023-12-20T00:00:12;97578.19;;;3.41;86.51
75424;BME280;64005;55.160;36.002;2023-12-20T00:02:39;97576.25;;;3.41;86.64
75424;BME280;64005;55.160;36.002;2023-12-20T00:05:10;97593.53;;;3.42;86.61
75424;BME280;64005;55.160;36.002;2023-12-20T00:10:54;97587.25;;;3.41;86.63
75424;BME280;64005;55.160;36.002;2023-12-20T00:13:28;97602.91;;;3.41;86.27
75424;BME280;64005;55.160;36.002;2023-12-20T00:15:55;97597.75;;;3.39;86.20
75424;BME280;64005;55.160;36.002;2023-12-20T00:18:23;97593.84;;;3.40;86.18
75424;BME280;64005;55.160;36.002;2023-12-20T00:20:49;97594.66;;;3.41;86.69
75424;BME280;64005;55.160;36.002;2023-12-20T00:23:16;97605.66;;;3.41;86.41
75424;BME280;64005;55.160;36.002;2023-12-20T00:25:43;97600.16;;;3.41;86.61
75424;BME280;64005;55.160;36.002;2023-12-20T00:28:12;97588.38;;;3.40;86.77
75424;BME280;64005;55.160;36.002;2023-12-20T00:30:39;97586.75;;;3.39;86.73
75424;BME280;64005;55.160;36.002;2023-12-20T00:33:06;97588.38;;;3.40;86.42
75424;BME280;64005;55.160;36.002;2023-12-20T00:35:34;97579.81;;;3.42;86.23
75424;BME280;64005;55.160;36.002;2023-12-20T00:38:01;97581.75;;;3.41;86.75
75424;BME280;64005;55.160;36.002;2023-12-20T00:40:48;97585.97;;;3.39;86.60
75424;BME280;64005;55.160;36.002;2023-12-20T00:43:17;97582.41;;;3.38;86.75
75424;BME280;64005;55.160;36.002;2023-12-20T00:45:44;97565.41;;;3.36;86.33
75424;BME280;64005;55.160;36.002;2023-12-20T00:48:33;97576.91;;;3.38;86.82
75424;BME280;64005;55.160;36.002;2023-12-20T00:51:00;97569.78;;;3.37;86.44
75424;BME280;64005;55.160;36.002;2023-12-20T00:53:27;97567.84;;;3.38;86.17
75424;BME280;64005;55.160;36.002;2023-12-20T00:55:55;97569.78;;;3.37;86.51
75424;BME280;64005;55.160;36.002;2023-12-20T00:58:25;97571.72;;;3.37;87.10
75424;BME280;64005;55.160;36.002;2023-12-20T01:00:53;97558.00;;;3.37;86.58
75424;BME280;64005;55.160;36.002;2023-12-20T01:03:20;97561.53;;;3.37;86.18
75424;BME280;64005;55.160;36.002;2023-12-20T01:05:48;97562.66;;;3.36;86.75
75424;BME280;64005;55.160;36.002;2023-12-20T01:08:17;97568.47;;;3.35;86.50
75424;BME280;64005;55.160;36.002;2023-12-20T01:10:44;97552.81;;;3.35;86.38
75424;BME280;64005;55.160;36.002;2023-12-20T01:13:12;97563.31;;;3.33;86.58
75424;BME280;64005;55.160;36.002;2023-12-20T01:15:42;97561.72;;;3.32;86.56
75424;BME280;64005;55.160;36.002;2023-12-20T01:18:09;97548.75;;;3.33;86.45
75424;BME280;64005;55.160;36.002;2023-12-20T01:20:36;97552.66;;;3.32;86.62
75424;BME280;64005;55.160;36.002;2023-12-20T01:23:27;97565.25;;;3.33;86.95
75424;BME280;64005;55.160;36.002;2023-12-20T01:32:21;97560.41;;;3.30;86.61
75424;BME280;64005;55.160;36.002;2023-12-20T01:34:48;97560.41;;;3.30;86.78
75424;BME280;64005;55.160;36.002;2023-12-20T01:37:15;97553.78;;;3.31;85.99
75424;BME280;64005;55.160;36.002;2023-12-20T01:39:51;97540.03;;;3.31;86.53
75424;BME280;64005;55.160;36.002;2023-12-20T01:42:18;97520.31;;;3.29;86.26
75424;BME280;64005;55.160;36.002;2023-12-20T01:45:01;97530.50;;;3.28;86.58
75424;BME280;64005;55.160;36.002;2023-12-20T01:47:32;97515.94;;;3.28;86.61
75424;BME280;64005;55.160;36.002;2023-12-20T01:53:10;97520.31;;;3.29;86.37
75424;BME280;64005;55.160;36.002;2023-12-20T01:58:47;97512.41;;;3.27;86.51
75424;BME280;64005;55.160;36.002;2023-12-20T02:01:33;97519.81;;;3.27;85.92
75424;BME280;64005;55.160;36.002;2023-12-20T02:04:02;97514.81;;;3.29;86.57
75424;BME280;64005;55.160;36.002;2023-12-20T02:06:30;97507.72;;;3.28;86.55
75424;BME280;64005;55.160;36.002;2023-12-20T02:09:33;97502.22;;;3.28;86.57
75424;BME280;64005;55.160;36.002;2023-12-20T02:12:10;97497.84;;;3.27;86.13
75424;BME280;64005;55.160;36.002;2023-12-20T02:14:37;97503.34;;;3.27;86.19
75424;BME280;64005;55.160;36.002;2023-12-20T02:17:04;97511.59;;;3.27;86.47
75424;BME280;64005;55.160;36.002;2023-12-20T02:19:43;97508.84;;;3.27;86.21
75424;BME280;64005;55.160;36.002;2023-12-20T02:22:21;97508.84;;;3.27;86.54
75424;BME280;64005;55.160;36.002;2023-12-20T02:24:48;97506.44;;;3.25;86.25
75424;BME280;64005;55.160;36.002;2023-12-20T02:27:29;97505.63;;;3.25;86.33
75424;BME280;64005;55.160;36.002;2023-12-20T02:29:56;97498.19;;;3.25;86.13
75424;BME280;64005;55.160;36.002;2023-12-20T02:32:24;97496.56;;;3.24;86.83
75424;BME280;64005;55.160;36.002;2023-12-20T02:35:06;97513.88;;;3.25;86.16
75424;BME280;64005;55.160;36.002;2023-12-20T02:37:35;97511.13;;;3.25;86.88
75424;BME280;64005;55.160;36.002;2023-12-20T02:40:18;97522.13;;;3.25;86.14
75424;BME280;64005;55.160;36.002;2023-12-20T02:43:04;97518.88;;;3.23;86.67
75424;BME280;64005;55.160;36.002;2023-12-20T02:45:36;97514.19;;;3.23;86.77
75424;BME280;64005;55.160;36.002;2023-12-20T02:48:03;97521.63;;;3.23;86.28
75424;BME280;64005;55.160;36.002;2023-12-20T02:50:31;97512.25;;;3.24;86.10
75424;BME280;64005;55.160;36.002;2023-12-20T02:56:14;97507.88;;;3.23;86.28
75424;BME280;64005;55.160;36.002;2023-12-20T02:58:41;97504.31;;;3.22;86.43
75424;BME280;64005;55.160;36.002;2023-12-20T03:01:23;97511.75;;;3.22;86.21
75424;BME280;64005;55.160;36.002;2023-12-20T03:03:51;97513.38;;;3.23;86.17
75424;BME280;64005;55.160;36.002;2023-12-20T03:09:26;97519.69;;;3.23;86.75
75424;BME280;64005;55.160;36.002;2023-12-20T03:11:55;97511.44;;;3.23;86.25
75424;BME280;64005;55.160;36.002;2023-12-20T03:14:36;97502.38;;;3.23;86.35
75424;BME280;64005;55.160;36.002;2023-12-20T03:17:13;97498.81;;;3.22;87.00
75424;BME280;64005;55.160;36.002;2023-12-20T03:19:46;97498.69;;;3.18;86.46
75424;BME280;64005;55.160;36.002;2023-12-20T03:22:14;97495.13;;;3.18;86.53
75424;BME280;64005;55.160;36.002;2023-12-20T03:24:41;97494.31;;;3.17;86.19
75424;BME280;64005;55.160;36.002;2023-12-20T03:27:14;97487.69;;;3.18;86.63
75424;BME280;64005;55.160;36.002;2023-12-20T03:29:43;97492.84;;;3.20;86.26
75424;BME280;64005;55.160;36.002;2023-12-20T03:32:16;97475.91;;;3.18;86.06
75424;BME280;64005;55.160;36.002;2023-12-20T03:34:43;97486.06;;;3.17;86.14
75424;BME280;64005;55.160;36.002;2023-12-20T03:37:10;97478.97;;;3.16;86.07
75424;BME280;64005;55.160;36.002;2023-12-20T03:39:37;97493.81;;;3.15;86.06
75424;BME280;64005;55.160;36.002;2023-12-20T03:42:05;97498.50;;;3.15;86.40
75424;BME280;64005;55.160;36.002;2023-12-20T03:44:33;97494.63;;;3.16;86.48
75424;BME280;64005;55.160;36.002;2023-12-20T03:47:06;97502.06;;;3.15;86.61
75424;BME280;64005;55.160;36.002;2023-12-20T03:49:36;97502.56;;;3.17;86.19
75424;BME280;64005;55.160;36.002;2023-12-20T03:52:21;97499.81;;;3.17;86.72
75424;BME280;64005;55.160;36.002;2023-12-20T03:54:56;97496.25;;;3.17;86.00
75424;BME280;64005;55.160;36.002;2023-12-20T03:57:23;97493.50;;;3.17;86.13
75424;BME280;64005;55.160;36.002;2023-12-20T04:00:08;97493.00;;;3.15;86.21
75424;BME280;64005;55.160;36.002;2023-12-20T04:03:10;97493.34;;;3.13;86.70
75424;BME280;64005;55.160;36.002;2023-12-20T04:05:39;97501.91;;;3.12;86.78
75424;BME280;64005;55.160;36.002;2023-12-20T04:08:14;97507.06;;;3.13;86.36
75424;BME280;64005;55.160;36.002;2023-12-20T04:10:55;97498.81;;;3.13;86.20
75424;BME280;64005;55.160;36.002;2023-12-20T04:13:35;97499.63;;;3.14;86.60
75424;BME280;64005;55.160;36.002;2023-12-20T04:16:13;97505.13;;;3.14;86.25
75424;BME280;64005;55.160;36.002;2023-12-20T04:18:40;97512.56;;;3.13;86.54
75424;BME280;64005;55.160;36.002;2023-12-20T04:21:38;97501.56;;;3.13;86.54
75424;BME280;64005;55.160;36.002;2023-12-20T04:27:07;97523.91;;;3.12;86.44
75424;BME280;64005;55.160;36.002;2023-12-20T04:29:34;97519.22;;;3.12;86.08
75424;BME280;64005;55.160;36.002;2023-12-20T04:32:14;97525.50;;;3.13;86.54
75424;BME280;64005;55.160;36.002;2023-12-20T04:34:41;97526.66;;;3.12;86.20
75424;BME280;64005;55.160;36.002;2023-12-20T04:40:44;97520.00;;;3.13;86.46
75424;BME280;64005;55.160;36.002;2023-12-20T04:43:11;97517.91;;;3.10;86.76
75424;BME280;64005;55.160;36.002;2023-12-20T04:45:38;97518.72;;;3.10;86.38
75424;BME280;64005;55.160;36.002;2023-12-20T04:48:07;97520.66;;;3.10;86.61
75424;BME280;64005;55.160;36.002;2023-12-20T04:50:34;97522.91;;;3.08;86.37
75424;BME280;64005;55.160;36.002;2023-12-20T04:53:01;97524.03;;;3.07;86.16
75424;BME280;64005;55.160;36.002;2023-12-20T04:55:29;97522.28;;;3.02;86.11
75424;BME280;64005;55.160;36.002;2023-12-20T04:58:15;97528.91;;;3.01;86.42
75424;BME280;64005;55.160;36.002;2023-12-20T05:01:12;97520.66;;;3.01;86.15
75424;BME280;64005;55.160;36.002;2023-12-20T05:03:40;97520.16;;;2.99;86.18
75424;BME280;64005;55.160;36.002;2023-12-20T05:06:18;97519.38;;;2.99;86.31
75424;BME280;64005;55.160;36.002;2023-12-20T05:09:00;97515.47;;;3.00;86.10
75424;BME280;64005;55.160;36.002;2023-12-20T05:12:05;97531.63;;;3.01;86.36
75424;BME280;64005;55.160;36.002;2023-12-20T05:14:41;97555.25;;;3.02;86.65
75424;BME280;64005;55.160;36.002;2023-12-20T05:17:18;97551.38;;;3.03;86.29
75424;BME280;64005;55.160;36.002;2023-12-20T05:20:18;97552.63;;;3.06;86.29
75424;BME280;64005;55.160;36.002;2023-12-20T05:22:45;97563.31;;;3.07;86.25
75424;BME280;64005;55.160;36.002;2023-12-20T05:25:14;97553.13;;;3.08;86.75
75424;BME280;64005;55.160;36.002;2023-12-20T05:30:39;97560.25;;;3.09;86.58
75424;BME280;64005;55.160;36.002;2023-12-20T05:33:06;97553.94;;;3.08;86.62
75424;BME280;64005;55.160;36.002;2023-12-20T05:35:35;97556.69;;;3.08;86.68
75424;BME280;64005;55.160;36.002;2023-12-20T05:38:03;97555.06;;;3.07;86.19
75424;BME280;64005;55.160;36.002;2023-12-20T05:40:34;97554.25;;;3.07;86.21
75424;BME280;64005;55.160;36.002;2023-12-20T05:43:09;97562.84;;;3.05;86.74
75424;BME280;64005;55.160;36.002;2023-12-20T05:45:36;97557.34;;;3.05;86.42
75424;BME280;64005;55.160;36.002;2023-12-20T05:48:04;97559.75;;;3.07;86.83
75424;BME280;64005;55.160;36.002;2023-12-20T05:50:45;97560.09;;;3.05;86.75
75424;BME280;64005;55.160;36.002;2023-12-20T05:53:24;97561.69;;;3.06;86.43
75424;BME280;64005;55.160;36.002;2023-12-20T05:55:52;97568.81;;;3.07;86.58
75424;BME280;64005;55.160;36.002;2023-12-20T05:58:26;97572.84;;;3.10;86.61
75424;BME280;64005;55.160;36.002;2023-12-20T06:00:53;97576.91;;;3.12;86.64
75424;BME280;64005;55.160;36.002;2023-12-20T06:03:20;97562.81;;;3.14;86.68
75424;BME280;64005;55.160;36.002;2023-12-20T06:05:49;97559.75;;;3.15;87.07
75424;BME280;64005;55.160;36.002;2023-12-20T06:08:16;97561.69;;;3.15;86.91
75424;BME280;64005;55.160;36.002;2023-12-20T06:10:43;97567.69;;;3.17;86.59
75424;BME280;64005;55.160;36.002;2023-12-20T06:13:10;97567.69;;;3.17;86.87
75424;BME280;64005;55.160;36.002;2023-12-20T06:15:38;97570.44;;;3.17;86.66
75424;BME280;64005;55.160;36.002;2023-12-20T06:18:07;97568.50;;;3.17;86.67
75424;BME280;64005;55.160;36.002;2023-12-20T06:21:04;97577.56;;;3.18;86.61
75424;BME280;64005;55.160;36.002;2023-12-20T06:23:32;97571.25;;;3.17;87.04
75424;BME280;64005;55.160;36.002;2023-12-20T06:29:30;97572.06;;;3.18;86.59
75424;BME280;64005;55.160;36.002;2023-12-20T06:35:57;97571.25;;;3.17;86.42
75424;BME280;64005;55.160;36.002;2023-12-20T06:38:26;97567.69;;;3.17;86.98
75424;BME280;64005;55.160;36.002;2023-12-20T06:40:53;97574.00;;;3.17;86.81
75424;BME280;64005;55.160;36.002;2023-12-20T06:43:23;97571.72;;;3.19;86.97
75424;BME280;64005;55.160;36.002;2023-12-20T06:49:31;97581.25;;;3.22;86.47
75424;BME280;64005;55.160;36.002;2023-12-20T06:52:16;97584.50;;;3.24;86.78
75424;BME280;64005;55.160;36.002;2023-12-20T06:54:45;97586.44;;;3.24;86.83
75424;BME280;64005;55.160;36.002;2023-12-20T06:57:12;97586.44;;;3.24;86.37
75424;BME280;64005;55.160;36.002;2023-12-20T06:59:52;97597.13;;;3.25;86.53
75424;BME280;64005;55.160;36.002;2023-12-20T07:02:19;97593.22;;;3.26;86.78
75424;BME280;64005;55.160;36.002;2023-12-20T07:04:48;97606.63;;;3.28;86.43
75424;BME280;64005;55.160;36.002;2023-12-20T07:10:26;97605.81;;;3.27;86.49
75424;BME280;64005;55.160;36.002;2023-12-20T07:12:53;97605.50;;;3.29;86.79
75424;BME280;64005;55.160;36.002;2023-12-20T07:15:21;97606.00;;;3.31;86.53
75424;BME280;64005;55.160;36.002;2023-12-20T07:17:48;97602.94;;;3.32;86.54
75424;BME280;64005;55.160;36.002;2023-12-20T07:20:16;97597.44;;;3.32;86.71
75424;BME280;64005;55.160;36.002;2023-12-20T07:23:07;97595.16;;;3.34;87.16
75424;BME280;64005;55.160;36.002;2023-12-20T07:26:05;97597.59;;;3.36;86.59
75424;BME280;64005;55.160;36.002;2023-12-20T07:28:33;97600.84;;;3.38;86.94
75424;BME280;64005;55.160;36.002;2023-12-20T07:31:00;97603.59;;;3.38;87.21
75424;BME280;64005;55.160;36.002;2023-12-20T07:33:27;97602.47;;;3.39;86.99
75424;BME280;64005;55.160;36.002;2023-12-20T07:35:54;97603.41;;;3.43;86.60
75424;BME280;64005;55.160;36.002;2023-12-20T07:38:48;97607.94;;;3.47;86.67
75424;BME280;64005;55.160;36.002;2023-12-20T07:41:16;97601.78;;;3.50;87.04
75424;BME280;64005;55.160;36.002;2023-12-20T07:43:54;97601.13;;;3.53;86.83
75424;BME280;64005;55.160;36.002;2023-12-20T07:46:22;97600.19;;;3.58;87.06
75424;BME280;64005;55.160;36.002;2023-12-20T07:48:49;97594.81;;;3.62;87.31
75424;BME280;64005;55.160;36.002;2023-12-20T07:51:30;97591.91;;;3.67;87.07
75424;BME280;64005;55.160;36.002;2023-12-20T07:53:57;97594.00;;;3.70;87.46
75424;BME280;64005;55.160;36.002;2023-12-20T07:56:25;97597.72;;;3.74;87.10
75424;BME280;64005;55.160;36.002;2023-12-20T07:58:52;97595.94;;;3.78;86.89
75424;BME280;64005;55.160;36.002;2023-12-20T08:01:20;97598.03;;;3.81;87.24
75424;BME280;64005;55.160;36.002;2023-12-20T08:07:13;97598.19;;;3.84;86.77
75424;BME280;64005;55.160;36.002;2023-12-20T08:09:41;97590.28;;;3.83;87.03
75424;BME280;64005;55.160;36.002;2023-12-20T08:12:10;97593.50;;;3.85;87.18
75424;BME280;64005;55.160;36.002;2023-12-20T08:14:58;97594.63;;;3.84;86.68
75424;BME280;64005;55.160;36.002;2023-12-20T08:17:25;97597.38;;;3.84;87.12
75424;BME280;64005;55.160;36.002;2023-12-20T08:22:58;97591.06;;;3.83;86.93
75424;BME280;64005;55.160;36.002;2023-12-20T08:25:26;97584.09;;;3.86;86.83
75424;BME280;64005;55.160;36.002;2023-12-20T08:28:29;97579.41;;;3.86;87.40
75424;BME280;64005;55.160;36.002;2023-12-20T08:30:56;97568.41;;;3.86;87.02
75424;BME280;64005;55.160;36.002;2023-12-20T08:33:49;97574.25;;;3.85;86.96
75424;BME280;64005;55.160;36.002;2023-12-20T08:36:35;97577.66;;;3.82;86.87
75424;BME280;64005;55.160;36.002;2023-12-20T08:41:52;97573.78;;;3.74;86.78
75424;BME280;64005;55.160;36.002;2023-12-20T08:44:38;97580.75;;;3.72;87.26
75424;BME280;64005;55.160;36.002;2023-12-20T08:47:05;97584.31;;;3.72;86.63
75424;BME280;64005;55.160;36.002;2023-12-20T08:50:00;97576.84;;;3.73;86.87
75424;BME280;64005;55.160;36.002;2023-12-20T08:52:44;97572.50;;;3.72;86.96
75424;BME280;64005;55.160;36.002;2023-12-20T08:55:19;97570.06;;;3.70;86.97
75424;BME280;64005;55.160;36.002;2023-12-20T08:57:47;97575.56;;;3.70;86.88
75424;BME280;64005;55.160;36.002;2023-12-20T09:00:19;97566.50;;;3.70;86.89
75424;BME280;64005;55.160;36.002;2023-12-20T09:02:56;97567.00;;;3.72;87.22
75424;BME280;64005;55.160;36.002;2023-12-20T09:05:23;97569.41;;;3.73;87.24
75424;BME280;64005;55.160;36.002;2023-12-20T09:08:10;97569.09;;;3.75;86.63
75424;BME280;64005;55.160;36.002;2023-12-20T09:10:37;97567.47;;;3.74;86.53
75424;BME280;64005;55.160;36.002;2023-12-20T09:13:04;97575.72;;;3.74;87.11
75424;BME280;64005;55.160;36.002;2023-12-20T09:15:33;97574.09;;;3.73;87.06
75424;BME280;64005;55.160;36.002;2023-12-20T09:18:01;97568.59;;;3.73;86.69
75424;BME280;64005;55.160;36.002;2023-12-20T09:20:29;97569.75;;;3.72;87.28
75424;BME280;64005;55.160;36.002;2023-12-20T09:22:56;97571.19;;;3.69;86.87
75424;BME280;64005;55.160;36.002;2023-12-20T09:25:24;97566.34;;;3.66;87.16
75424;BME280;64005;55.160;36.002;2023-12-20T09:27:52;97573.81;;;3.66;86.58
75424;BME280;64005;55.160;36.002;2023-12-20T09:30:19;97570.25;;;3.65;86.84
75424;BME280;64005;55.160;36.002;2023-12-20T09:32:47;97577.69;;;3.65;86.98
75424;BME280;64005;55.160;36.002;2023-12-20T09:35:15;97577.19;;;3.63;86.95
75424;BME280;64005;55.160;36.002;2023-12-20T09:37:43;97567.66;;;3.60;87.23
75424;BME280;64005;55.160;36.002;2023-12-20T09:40:13;97563.44;;;3.63;86.61
75424;BME280;64005;55.160;36.002;2023-12-20T09:42:44;97567.66;;;3.60;86.94
75424;BME280;64005;55.160;36.002;2023-12-20T09:45:15;97564.91;;;3.60;86.51
75424;BME280;64005;55.160;36.002;2023-12-20T09:47:43;97563.78;;;3.61;86.55
75424;BME280;64005;55.160;36.002;2023-12-20T09:53:54;97572.19;;;3.56;86.67
75424;BME280;64005;55.160;36.002;2023-12-20T09:56:44;97570.88;;;3.53;87.14
75424;BME280;64005;55.160;36.002;2023-12-20T09:59:18;97566.69;;;3.56;86.82
75424;BME280;64005;55.160;36.002;2023-12-20T10:01:45;97559.91;;;3.53;86.55
75424;BME280;64005;55.160;36.002;2023-12-20T10:04:13;97575.56;;;3.53;86.83
75424;BME280;64005;55.160;36.002;2023-12-20T10:06:40;97569.28;;;3.52;86.26
75424;BME280;64005;55.160;36.002;2023-12-20T10:09:10;97571.69;;;3.54;86.58
75424;BME280;64005;55.160;36.002;2023-12-20T10:11:40;97574.94;;;3.56;87.30
75424;BME280;64005;55.160;36.002;2023-12-20T10:14:13;97581.41;;;3.60;87.15
75424;BME280;64005;55.160;36.002;2023-12-20T10:16:41;97570.06;;;3.62;87.03
75424;BME280;64005;55.160;36.002;2023-12-20T10:19:08;97577.19;;;3.63;87.05
75424;BME280;64005;55.160;36.002;2023-12-20T10:21:35;97570.25;;;3.65;87.29
75424;BME280;64005;55.160;36.002;2023-12-20T10:24:05;97561.19;;;3.65;87.27
75424;BME280;64005;55.160;36.002;2023-12-20T10:26:33;97555.84;;;3.68;86.62
75424;BME280;64005;55.160;36.002;2023-12-20T10:29:15;97557.44;;;3.69;87.04
75424;BME280;64005;55.160;36.002;2023-12-20T10:31:42;97560.69;;;3.71;87.12
75424;BME280;64005;55.160;36.002;2023-12-20T10:34:11;97560.03;;;3.74;87.16
75424;BME280;64005;55.160;36.002;2023-12-20T10:36:38;97556.47;;;3.74;87.29
75424;BME280;64005;55.160;36.002;2023-12-20T10:39:17;97568.09;;;3.79;87.33
75424;BME280;64005;55.160;36.002;2023-12-20T10:41:52;97563.56;;;3.83;86.93
75424;BME280;64005;55.160;36.002;2023-12-20T10:44:19;97560.16;;;3.86;87.46
75424;BME280;64005;55.160;36.002;2023-12-20T10:49:50;97561.63;;;3.84;86.53
75424;BME280;64005;55.160;36.002;2023-12-20T10:52:54;97567.94;;;3.84;86.31
75424;BME280;64005;55.160;36.002;2023-12-20T10:55:22;97561.31;;;3.85;86.84
75424;BME280;64005;55.160;36.002;2023-12-20T10:57:51;97554.66;;;3.86;87.12
75424;BME280;64005;55.160;36.002;2023-12-20T11:00:29;97563.25;;;3.85;86.75
75424;BME280;64005;55.160;36.002;2023-12-20T11:03:22;97556.44;;;3.82;87.02
75424;BME280;64005;55.160;36.002;2023-12-20T11:05:57;97566.97;;;3.80;86.75
75424;BME280;64005;55.160;36.002;2023-12-20T11:08:38;97572.31;;;3.77;87.04
75424;BME280;64005;55.160;36.002;2023-12-20T11:11:12;97571.03;;;3.74;86.67
75424;BME280;64005;55.160;36.002;2023-12-20T11:13:55;97566.66;;;3.73;86.66
75424;BME280;64005;55.160;36.002;2023-12-20T11:16:24;97562.31;;;3.72;86.58
75424;BME280;64005;55.160;36.002;2023-12-20T11:22:32;97573.47;;;3.67;86.43
75424;BME280;64005;55.160;36.002;2023-12-20T11:25:04;97568.31;;;3.66;86.14
75424;BME280;64005;55.160;36.002;2023-12-20T11:27:32;97578.63;;;3.69;86.43
75424;BME280;64005;55.160;36.002;2023-12-20T11:30:04;97559.25;;;3.65;87.02
75424;BME280;64005;55.160;36.002;2023-12-20T11:32:41;97563.59;;;3.66;86.08
75424;BME280;64005;55.160;36.002;2023-12-20T11:38:36;97572.03;;;3.61;86.10
75424;BME280;64005;55.160;36.002;2023-12-20T11:41:05;97563.78;;;3.61;86.85
75424;BME280;64005;55.160;36.002;2023-12-20T11:46:40;97579.63;;;3.55;86.23
75424;BME280;64005;55.160;36.002;2023-12-20T11:49:07;97579.63;;;3.55;86.37
75424;BME280;64005;55.160;36.002;2023-12-20T11:51:34;97590.63;;;3.55;86.43
75424;BME280;64005;55.160;36.002;2023-12-20T11:54:02;97586.56;;;3.53;86.38
75424;BME280;64005;55.160;36.002;2023-12-20T11:56:29;97574.75;;;3.52;86.20
75424;BME280;64005;55.160;36.002;2023-12-20T11:58:56;97581.75;;;3.50;86.41
75424;BME280;64005;55.160;36.002;2023-12-20T12:01:25;97582.56;;;3.50;86.56
75424;BME280;64005;55.160;36.002;2023-12-20T12:04:03;97588.06;;;3.50;86.55
75424;BME280;64005;55.160;36.002;2023-12-20T12:06:38;97597.09;;;3.51;86.40
75424;BME280;64005;55.160;36.002;2023-12-20T12:09:18;97583.38;;;3.51;86.58
75424;BME280;64005;55.160;36.002;2023-12-20T12:11:45;97579.00;;;3.50;86.13
75424;BME280;64005;55.160;36.002;2023-12-20T12:14:13;97585.13;;;3.47;86.20
75424;BME280;64005;55.160;36.002;2023-12-20T12:16:41;97589.34;;;3.44;86.23
75424;BME280;64005;55.160;36.002;2023-12-20T12:19:26;97586.91;;;3.43;86.73
75424;BME280;64005;55.160;36.002;2023-12-20T12:22:13;97582.56;;;3.42;86.76
75424;BME280;64005;55.160;36.002;2023-12-20T12:24:41;97590.00;;;3.41;86.17
75424;BME280;64005;55.160;36.002;2023-12-20T12:27:09;97574.97;;;3.39;86.08
75424;BME280;64005;55.160;36.002;2023-12-20T12:32:57;97573.66;;;3.36;85.93
75424;BME280;64005;55.160;36.002;2023-12-20T12:35:26;97573.16;;;3.34;86.54
75424;BME280;64005;55.160;36.002;2023-12-20T12:38:23;97569.16;;;3.32;86.27
75424;BME280;64005;55.160;36.002;2023-12-20T12:40:51;97576.09;;;3.29;86.25
75424;BME280;64005;55.160;36.002;2023-12-20T12:43:22;97573.19;;;3.26;86.08
75424;BME280;64005;55.160;36.002;2023-12-20T12:45:49;97580.63;;;3.25;86.47
75424;BME280;64005;55.160;36.002;2023-12-20T12:48:17;97579.00;;;3.24;86.57
75424;BME280;64005;55.160;36.002;2023-12-20T12:50:46;97584.50;;;3.24;86.05
75424;BME280;64005;55.160;36.002;2023-12-20T12:53:50;97573.81;;;3.23;86.53
75424;BME280;64005;55.160;36.002;2023-12-20T12:59:29;97581.13;;;3.18;86.11
75424;BME280;64005;55.160;36.002;2023-12-20T13:02:15;97578.38;;;3.18;85.98
75424;BME280;64005;55.160;36.002;2023-12-20T13:04:43;97579.00;;;3.15;86.33
75424;BME280;64005;55.160;36.002;2023-12-20T13:07:26;97587.25;;;3.15;86.40
75424;BME280;64005;55.160;36.002;2023-12-20T13:09:53;97584.00;;;3.13;85.91
75424;BME280;64005;55.160;36.002;2023-12-20T13:12:20;97592.59;;;3.12;86.01
75424;BME280;64005;55.160;36.002;2023-12-20T13:15:00;97589.03;;;3.11;86.47
75424;BME280;64005;55.160;36.002;2023-12-20T13:17:30;97599.53;;;3.09;86.33
75424;BME280;64005;55.160;36.002;2023-12-20T13:20:11;97603.38;;;3.08;86.26
75424;BME280;64005;55.160;36.002;2023-12-20T13:22:40;97602.91;;;3.06;86.28
75424;BME280;64005;55.160;36.002;2023-12-20T13:25:07;97610.31;;;3.06;86.11
75424;BME280;64005;55.160;36.002;2023-12-20T13:27:43;97607.91;;;3.04;85.64
75424;BME280;64005;55.160;36.002;2023-12-20T13:33:13;97619.03;;;2.99;86.10
75424;BME280;64005;55.160;36.002;2023-12-20T13:36:06;97622.94;;;2.98;85.82
75424;BME280;64005;55.160;36.002;2023-12-20T13:38:35;97624.06;;;2.97;86.14
75424;BME280;64005;55.160;36.002;2023-12-20T13:41:27;97627.94;;;2.96;85.99
75424;BME280;64005;55.160;36.002;2023-12-20T13:43:54;97636.19;;;2.96;85.86
75424;BME280;64005;55.160;36.002;2023-12-20T13:49:28;97627.28;;;2.99;86.33
75424;BME280;64005;55.160;36.002;2023-12-20T13:52:10;97617.44;;;2.98;86.22
75424;BME280;64005;55.160;36.002;2023-12-20T13:54:59;97619.38;;;2.98;85.81
75424;BME280;64005;55.160;36.002;2023-12-20T13:57:36;97618.56;;;2.97;85.91
75424;BME280;64005;55.160;36.002;2023-12-20T14:00:19;97616.94;;;2.96;85.80
75424;BME280;64005;55.160;36.002;2023-12-20T14:02:46;97621.94;;;2.94;85.89
75424;BME280;64005;55.160;36.002;2023-12-20T14:05:28;97628.56;;;2.93;86.00
75424;BME280;64005;55.160;36.002;2023-12-20T14:07:55;97621.13;;;2.94;85.95
75424;BME280;64005;55.160;36.002;2023-12-20T14:10:30;97618.72;;;2.92;86.69
75424;BME280;64005;55.160;36.002;2023-12-20T14:12:57;97626.16;;;2.92;85.95
75424;BME280;64005;55.160;36.002;2023-12-20T14:18:33;97630.84;;;2.91;85.93
75424;BME280;64005;55.160;36.002;2023-12-20T14:21:02;97630.03;;;2.91;86.33
75424;BME280;64005;55.160;36.002;2023-12-20T14:23:32;97623.41;;;2.92;86.19
75424;BME280;64005;55.160;36.002;2023-12-20T14:26:02;97633.59;;;2.91;85.83
75424;BME280;64005;55.160;36.002;2023-12-20T14:28:47;97635.22;;;2.92;86.11
75424;BME280;64005;55.160;36.002;2023-12-20T14:31:15;97641.81;;;2.91;86.30
75424;BME280;64005;55.160;36.002;2023-12-20T14:33:42;97637.97;;;2.92;86.22
75424;BME280;64005;55.160;36.002;2023-12-20T14:36:09;97637.97;;;2.92;86.05
75424;BME280;64005;55.160;36.002;2023-12-20T14:38:36;97633.59;;;2.91;86.23
75424;BME280;64005;55.160;36.002;2023-12-20T14:41:15;97628.41;;;2.90;86.54
75424;BME280;64005;55.160;36.002;2023-12-20T14:44:10;97635.34;;;2.87;86.43
75424;BME280;64005;55.160;36.002;2023-12-20T14:46:37;97630.19;;;2.86;86.28
75424;BME280;64005;55.160;36.002;2023-12-20T14:52:29;97621.16;;;2.85;86.57
75424;BME280;64005;55.160;36.002;2023-12-20T14:54:57;97623.88;;;2.85;86.06
75424;BME280;64005;55.160;36.002;2023-12-20T14:57:25;97626.94;;;2.84;85.89
75424;BME280;64005;55.160;36.002;2023-12-20T15:03:30;97624.66;;;2.77;86.25